createdAt,value
2022-12-05T00:02:53.843Z,51.50
2022-12-05T00:05:55.436Z,71.93
2022-12-05T00:08:57.566Z,69.60
2022-12-05T00:11:59.160Z,94.30
2022-12-05T00:15:00.835Z,54.10
2022-12-05T00:18:02.427Z,59.70
2022-12-05T00:21:04.583Z,62.20
2022-12-05T00:24:07.401Z,59.83
2022-12-05T00:27:08.983Z,51.83
2022-12-05T00:30:10.679Z,59.07
2022-12-05T00:33:12.217Z,53.10
2022-12-05T00:36:15.196Z,60.93
2022-12-05T00:39:16.795Z,58.77
2022-12-05T00:42:18.538Z,67.23
2022-12-05T00:45:20.112Z,79.67
2022-12-05T00:48:21.696Z,71.73
2022-12-05T00:51:24.650Z,68.40
2022-12-05T00:54:26.298Z,51.10
2022-12-05T00:57:27.881Z,82.43
2022-12-05T01:00:29.629Z,54.10
2022-12-05T01:03:31.383Z,59.43
2022-12-05T01:06:33.473Z,49.77
2022-12-05T01:09:35.084Z,50.70
2022-12-05T01:12:36.628Z,52.57
2022-12-05T01:15:38.235Z,51.33
2022-12-05T01:18:39.860Z,42.00
2022-12-05T01:21:41.952Z,47.63
2022-12-05T01:24:43.713Z,46.77
2022-12-05T01:27:45.582Z,55.03
2022-12-05T01:30:48.711Z,61.57
2022-12-05T01:33:50.487Z,54.07
2022-12-05T01:36:52.807Z,53.77
2022-12-05T01:39:54.432Z,73.57
2022-12-05T01:42:56.354Z,52.77
2022-12-05T01:45:58.003Z,46.43
2022-12-05T01:49:20.438Z,52.00
2022-12-05T01:52:24.752Z,45.53
2022-12-05T01:55:26.520Z,59.00
2022-12-05T01:58:31.328Z,58.80
2022-12-05T02:01:33.083Z,75.87
2022-12-05T02:04:37.704Z,86.60
2022-12-05T02:07:40.772Z,92.13
2022-12-05T02:10:47.490Z,67.13
2022-12-05T02:13:55.497Z,82.37
2022-12-05T02:16:57.213Z,95.20
2022-12-05T02:20:01.958Z,97.40
2022-12-05T02:23:22.265Z,78.00
2022-12-05T02:26:36.011Z,75.40
2022-12-05T02:29:56.244Z,76.90
2022-12-05T02:33:08.686Z,77.70
2022-12-05T02:36:23.581Z,72.10
2022-12-05T02:39:41.466Z,57.17
2022-12-05T02:43:09.576Z,51.03
2022-12-05T02:46:12.887Z,52.27
2022-12-05T02:49:17.778Z,91.00
2022-12-05T02:52:19.572Z,47.90
2022-12-05T02:55:22.351Z,55.20
2022-12-05T02:58:27.953Z,64.27
2022-12-05T03:01:31.866Z,68.23
2022-12-05T03:04:34.083Z,61.73
2022-12-05T03:07:36.630Z,53.33
2022-12-05T03:10:39.787Z,55.63
2022-12-05T03:13:44.640Z,49.87
2022-12-05T03:16:48.977Z,53.90
2022-12-05T03:19:58.120Z,52.97
2022-12-05T03:23:06.750Z,47.20
2022-12-05T03:26:14.536Z,56.97
2022-12-05T03:29:30.104Z,57.20
2022-12-05T03:32:31.726Z,47.77
2022-12-05T03:35:39.058Z,56.57
2022-12-05T03:38:45.953Z,38.80
2022-12-05T03:42:02.591Z,28.13
2022-12-05T03:45:07.936Z,28.87
2022-12-05T03:48:21.574Z,35.60
2022-12-05T03:51:25.014Z,38.40
2022-12-05T03:54:29.677Z,33.80
2022-12-05T03:57:33.242Z,30.13
2022-12-05T04:00:37.789Z,29.43
2022-12-05T04:03:41.768Z,34.20
2022-12-05T04:06:45.601Z,32.53
2022-12-05T04:09:52.214Z,35.07
2022-12-05T04:12:55.486Z,35.10
2022-12-05T04:16:27.844Z,35.37
2022-12-05T04:20:00.323Z,30.03
2022-12-05T04:23:02.665Z,32.17
2022-12-05T04:26:09.899Z,35.87
2022-12-05T04:29:15.494Z,33.20
2022-12-05T04:32:18.037Z,27.37
2022-12-05T04:35:23.132Z,28.57
2022-12-05T04:38:26.832Z,32.43
2022-12-05T04:41:31.516Z,26.97
2022-12-05T04:44:34.870Z,36.07
2022-12-05T04:47:39.414Z,37.50
2022-12-05T04:50:42.355Z,29.63
2022-12-05T04:53:45.401Z,23.67
2022-12-05T04:56:48.287Z,26.70
2022-12-05T04:59:50.253Z,21.83
2022-12-05T05:02:58.210Z,21.40
2022-12-05T05:06:00.222Z,22.70
2022-12-05T05:09:01.896Z,25.30
2022-12-05T05:12:03.915Z,53.30
2022-12-05T05:15:05.826Z,28.13
2022-12-05T05:18:09.425Z,32.93
2022-12-05T05:21:15.484Z,24.43
2022-12-05T05:24:17.559Z,22.87
2022-12-05T05:27:19.303Z,21.13
2022-12-05T05:30:22.111Z,26.90
2022-12-05T05:33:23.864Z,23.70
2022-12-05T05:36:27.448Z,24.33
2022-12-05T05:39:29.850Z,25.70
2022-12-05T05:42:31.464Z,22.27
2022-12-05T05:45:33.055Z,28.17
2022-12-05T05:48:34.944Z,22.03
2022-12-05T05:51:36.542Z,23.87
2022-12-05T05:54:38.117Z,24.10
2022-12-05T05:57:39.785Z,24.43
2022-12-05T06:00:41.359Z,23.03
2022-12-05T06:03:43.243Z,22.37
2022-12-05T06:06:44.923Z,17.60
2022-12-05T06:09:46.573Z,23.53
2022-12-05T06:12:48.149Z,20.43
2022-12-05T06:15:49.922Z,22.20
2022-12-05T06:18:51.763Z,23.10
2022-12-05T06:21:53.336Z,29.47
2022-12-05T06:24:54.876Z,22.73
2022-12-05T06:27:56.545Z,23.43
2022-12-05T06:30:58.222Z,24.10
2022-12-05T06:34:03.875Z,26.30
2022-12-05T06:37:05.695Z,26.80
2022-12-05T06:40:07.632Z,23.90
2022-12-05T06:43:09.733Z,25.37
2022-12-05T06:46:13.193Z,20.70
2022-12-05T06:49:15.079Z,29.47
2022-12-05T06:52:17.901Z,24.10
2022-12-05T06:55:19.592Z,23.97
2022-12-05T06:58:21.153Z,21.77
2022-12-05T07:01:42.867Z,21.60
2022-12-05T07:04:44.674Z,23.93
2022-12-05T07:07:46.594Z,25.27
2022-12-05T07:10:52.448Z,29.80
2022-12-05T07:13:54.127Z,28.33
2022-12-05T07:16:55.743Z,20.53
2022-12-05T07:19:57.617Z,23.80
2022-12-05T07:22:59.424Z,25.53
2022-12-05T07:26:04.676Z,25.57
2022-12-05T07:29:06.365Z,34.90
2022-12-05T07:32:08.368Z,33.80
2022-12-05T07:35:10.081Z,41.43
2022-12-05T07:38:11.701Z,47.40
2022-12-05T07:41:23.891Z,35.87
2022-12-05T07:44:25.484Z,31.17
2022-12-05T07:47:29.394Z,26.83
2022-12-05T07:50:30.985Z,32.73
2022-12-05T07:53:33.080Z,25.03
2022-12-05T07:56:34.738Z,28.47
2022-12-05T07:59:36.345Z,25.60
2022-12-05T08:02:40.794Z,25.27
2022-12-05T08:05:42.741Z,20.03
2022-12-05T08:08:44.930Z,33.40
2022-12-05T08:11:52.164Z,30.27
2022-12-05T08:14:54.279Z,42.83
2022-12-05T08:17:55.994Z,34.57
2022-12-05T08:21:04.932Z,42.20
2022-12-05T08:24:07.234Z,38.07
2022-12-05T08:27:08.831Z,28.37
2022-12-05T08:30:10.555Z,41.70
2022-12-05T08:33:12.614Z,32.47
2022-12-05T08:36:18.237Z,40.33
2022-12-05T08:39:20.058Z,61.47
2022-12-05T08:42:21.791Z,34.50
2022-12-05T08:45:23.406Z,33.43
2022-12-05T08:48:29.196Z,33.00
2022-12-05T08:51:31.155Z,36.17
2022-12-05T08:54:32.884Z,39.33
2022-12-05T08:57:34.481Z,31.17
2022-12-05T09:00:36.179Z,53.17
2022-12-05T09:03:40.099Z,25.03
2022-12-05T09:06:43.704Z,45.47
2022-12-05T09:09:45.322Z,43.57
2022-12-05T09:12:46.955Z,35.27
2022-12-05T09:15:49.610Z,46.50
2022-12-05T09:18:51.639Z,119.00
2022-12-05T09:21:53.822Z,35.23
2022-12-05T09:24:55.617Z,31.10
2022-12-05T09:27:57.639Z,39.93
2022-12-05T09:31:01.782Z,65.33
2022-12-05T09:34:03.552Z,34.53
2022-12-05T09:37:23.243Z,29.57
2022-12-05T09:40:27.121Z,26.40
2022-12-05T09:43:51.791Z,31.37
2022-12-05T09:46:53.442Z,36.83
2022-12-05T09:50:14.013Z,35.60
2022-12-05T09:53:32.982Z,33.13
2022-12-05T09:56:34.682Z,32.60
2022-12-05T09:59:36.312Z,49.10
2022-12-05T10:02:56.765Z,62.23
2022-12-05T10:06:17.321Z,40.77
2022-12-05T10:09:34.251Z,39.03
2022-12-05T10:12:42.135Z,41.83
2022-12-05T10:15:47.785Z,38.27
2022-12-05T10:18:52.662Z,44.20
2022-12-05T10:22:10.297Z,43.53
2022-12-05T10:25:13.277Z,27.40
2022-12-05T10:28:23.264Z,27.03
2022-12-05T10:31:27.963Z,41.63
2022-12-05T10:34:34.599Z,35.80
2022-12-05T10:37:36.624Z,45.27
2022-12-05T10:40:40.194Z,52.07
2022-12-05T10:43:45.588Z,51.90
2022-12-05T10:46:47.512Z,49.23
2022-12-05T10:49:49.616Z,43.93
2022-12-05T10:52:52.855Z,54.57
2022-12-05T10:56:28.931Z,55.33
2022-12-05T10:59:18.107Z,45.27
2022-12-05T11:02:27.951Z,46.10
2022-12-05T11:05:31.470Z,38.97
2022-12-05T11:09:02.990Z,35.93
2022-12-05T11:12:03.796Z,39.53
2022-12-05T11:15:22.561Z,42.87
2022-12-05T11:18:34.592Z,73.67
2022-12-05T11:21:42.566Z,78.70
2022-12-05T11:24:44.924Z,51.53
2022-12-05T11:27:46.515Z,61.97
2022-12-05T11:30:58.840Z,83.37
2022-12-05T11:34:02.556Z,139.50
2022-12-05T11:37:13.559Z,122.30
2022-12-05T11:40:38.137Z,51.57
2022-12-05T11:43:43.356Z,155.97
2022-12-05T11:46:54.233Z,93.03
2022-12-05T11:50:04.992Z,53.90
2022-12-05T11:53:14.231Z,70.13
2022-12-05T11:56:42.357Z,52.77
2022-12-05T12:00:03.721Z,51.20
2022-12-05T12:03:33.607Z,48.07
2022-12-05T12:06:53.414Z,40.77
2022-12-05T12:10:09.958Z,53.53
2022-12-05T12:13:18.116Z,71.07
2022-12-05T12:16:22.919Z,52.10
2022-12-05T12:19:57.195Z,35.77
2022-12-05T12:23:05.950Z,33.70
2022-12-05T12:26:07.633Z,50.13
2022-12-05T12:29:24.444Z,39.50
2022-12-05T12:32:26.127Z,41.40
2022-12-05T12:35:29.449Z,34.70
2022-12-05T12:38:51.679Z,50.57
2022-12-05T12:41:53.315Z,43.27
2022-12-05T12:45:01.116Z,44.10
2022-12-05T12:48:12.116Z,41.53
2022-12-05T12:51:14.044Z,38.97
2022-12-05T12:55:02.071Z,65.17
2022-12-05T12:58:18.871Z,44.80
2022-12-05T13:01:23.789Z,36.70
2022-12-05T13:04:30.156Z,52.17
2022-12-05T13:07:39.148Z,52.63
2022-12-05T13:10:43.557Z,49.60
2022-12-05T13:13:53.469Z,53.33
2022-12-05T13:16:55.968Z,49.80
2022-12-05T13:19:58.231Z,54.53
2022-12-05T13:23:04.712Z,45.87
2022-12-05T13:26:10.724Z,47.50
2022-12-05T13:29:19.033Z,46.03
2022-12-05T13:32:29.891Z,44.60
2022-12-05T13:35:51.802Z,37.53
2022-12-05T13:39:19.633Z,44.57
2022-12-05T13:42:27.810Z,40.80
2022-12-05T13:45:29.763Z,34.30
2022-12-05T13:48:34.072Z,34.17
2022-12-05T13:51:37.273Z,48.13
2022-12-05T13:54:44.295Z,60.33
2022-12-05T13:57:47.462Z,39.87
2022-12-05T14:00:52.666Z,54.23
2022-12-05T14:03:56.565Z,63.57
2022-12-05T14:06:58.902Z,82.17
2022-12-05T14:10:00.914Z,72.83
2022-12-05T14:13:23.634Z,57.73
2022-12-05T14:16:25.384Z,71.67
2022-12-05T14:19:34.645Z,66.43
2022-12-05T14:22:55.527Z,62.80
2022-12-05T14:25:59.644Z,70.90
2022-12-05T14:29:25.164Z,74.47
2022-12-05T14:32:35.400Z,58.03
2022-12-05T14:35:55.325Z,65.07
2022-12-05T14:38:57.264Z,62.57
2022-12-05T14:42:03.362Z,68.10
2022-12-05T14:45:20.313Z,92.43
2022-12-05T14:48:30.473Z,45.77
2022-12-05T14:51:35.110Z,68.90
2022-12-05T14:54:37.453Z,46.73
2022-12-05T14:57:46.489Z,54.33
2022-12-05T15:00:54.822Z,52.00
2022-12-05T15:04:05.504Z,39.43
2022-12-05T15:07:21.181Z,66.70
2022-12-05T15:10:31.955Z,63.30
2022-12-05T15:13:33.707Z,64.83
2022-12-05T15:16:41.204Z,60.40
2022-12-05T15:19:45.625Z,53.17
2022-12-05T15:22:47.320Z,66.87
2022-12-05T15:25:55.921Z,57.27
2022-12-05T15:28:59.079Z,69.50
2022-12-05T15:32:07.566Z,69.80
2022-12-05T15:35:11.876Z,66.23
2022-12-05T15:38:27.311Z,76.03
2022-12-05T15:41:29.462Z,86.43
2022-12-05T15:44:36.128Z,91.70
2022-12-05T15:47:40.427Z,69.70
2022-12-05T15:50:44.131Z,61.20
2022-12-05T15:53:48.759Z,77.13
2022-12-05T15:56:58.004Z,80.93
2022-12-05T16:00:02.859Z,61.73
2022-12-05T16:03:39.964Z,53.70
2022-12-05T16:06:46.558Z,53.13
2022-12-05T16:09:48.758Z,43.03
2022-12-05T16:12:51.308Z,41.97
2022-12-05T16:15:54.317Z,49.50
2022-12-05T16:18:57.484Z,54.20
2022-12-05T16:22:09.388Z,49.93
2022-12-05T16:25:14.059Z,53.37
2022-12-05T16:28:17.327Z,41.73
2022-12-05T16:31:19.056Z,54.77
2022-12-05T16:34:20.792Z,43.43
2022-12-05T16:37:26.961Z,45.77
2022-12-05T16:40:28.679Z,59.83
2022-12-05T16:43:33.733Z,72.07
2022-12-05T16:46:38.452Z,72.33
2022-12-05T16:49:46.085Z,74.10
2022-12-05T16:52:47.993Z,78.47
2022-12-05T16:55:50.046Z,82.77
2022-12-05T16:58:52.263Z,91.93
2022-12-05T17:01:54.034Z,92.80
2022-12-05T17:04:55.799Z,64.60
2022-12-05T17:07:57.456Z,72.10
2022-12-05T17:10:59.427Z,63.03
2022-12-05T17:14:01.595Z,71.10
2022-12-05T17:17:03.269Z,60.40
2022-12-05T17:20:05.517Z,115.17
2022-12-05T17:23:10.706Z,70.63
2022-12-05T17:26:13.533Z,69.23
2022-12-05T17:29:15.197Z,69.20
2022-12-05T17:32:16.817Z,69.63
2022-12-05T17:35:19.597Z,89.53
2022-12-05T17:38:22.077Z,58.30
2022-12-05T17:41:24.003Z,63.13
2022-12-05T17:44:25.681Z,54.50
2022-12-05T17:47:27.398Z,52.80
2022-12-05T17:50:29.958Z,59.93
2022-12-05T17:53:31.594Z,64.33
2022-12-05T17:56:33.276Z,55.03
2022-12-05T17:59:34.954Z,56.83
2022-12-05T18:02:36.607Z,75.27
2022-12-05T18:05:38.250Z,63.70
2022-12-05T18:08:40.173Z,73.47
2022-12-05T18:11:41.802Z,72.57
2022-12-05T18:14:43.487Z,58.37
2022-12-05T18:17:45.144Z,59.13
2022-12-05T18:20:46.761Z,59.83
2022-12-05T18:23:49.043Z,64.67
2022-12-05T18:26:50.611Z,63.73
2022-12-05T18:29:52.293Z,69.13
2022-12-05T18:32:54.102Z,60.17
2022-12-05T18:35:55.780Z,70.57
2022-12-05T18:38:58.070Z,66.97
2022-12-05T18:41:59.704Z,56.77
2022-12-05T18:45:01.820Z,51.60
2022-12-05T18:48:23.516Z,54.03
2022-12-05T18:51:25.356Z,57.87
2022-12-05T18:54:26.959Z,68.13
2022-12-05T18:57:28.667Z,64.30
2022-12-05T19:00:30.311Z,62.17
2022-12-05T19:03:32.513Z,68.43
2022-12-05T19:06:36.733Z,69.17
2022-12-05T19:09:38.383Z,65.17
2022-12-05T19:12:40.057Z,73.33
2022-12-05T19:15:41.701Z,63.67
2022-12-05T19:18:43.521Z,65.23
2022-12-05T19:21:45.602Z,63.23
2022-12-05T19:24:47.199Z,73.57
2022-12-05T19:27:48.921Z,76.60
2022-12-05T19:30:58.194Z,56.97
2022-12-05T19:34:01.072Z,62.20
2022-12-05T19:37:04.295Z,68.53
2022-12-05T19:40:07.333Z,62.97
2022-12-05T19:43:08.992Z,58.53
2022-12-05T19:46:12.552Z,50.63
2022-12-05T19:49:15.378Z,68.53
2022-12-05T19:52:18.049Z,67.83
2022-12-05T19:55:19.852Z,63.80
2022-12-05T19:58:21.505Z,90.60
2022-12-05T20:01:27.903Z,88.87
2022-12-05T20:04:29.510Z,61.57
2022-12-05T20:07:31.131Z,81.83
2022-12-05T20:10:33.958Z,58.90
2022-12-05T20:13:51.844Z,67.37
2022-12-05T20:16:56.237Z,63.03
2022-12-05T20:19:58.871Z,68.00
2022-12-05T20:23:00.695Z,66.57
2022-12-05T20:26:09.892Z,67.17
2022-12-05T20:29:11.645Z,76.07
2022-12-05T20:32:13.374Z,69.07
2022-12-05T20:35:16.631Z,74.60
2022-12-05T20:38:21.279Z,76.63
2022-12-05T20:41:22.999Z,77.83
2022-12-05T20:44:24.829Z,74.07
2022-12-05T20:47:26.528Z,61.60
2022-12-05T20:50:28.096Z,60.87
2022-12-05T20:53:32.586Z,65.23
2022-12-05T20:56:35.069Z,79.50
2022-12-05T20:59:36.679Z,67.70
2022-12-05T21:02:38.760Z,68.43
2022-12-05T21:05:40.422Z,68.60
2022-12-05T21:08:42.270Z,73.97
2022-12-05T21:11:44.458Z,68.77
2022-12-05T21:14:46.160Z,68.63
2022-12-05T21:17:47.733Z,72.30
2022-12-05T21:20:59.378Z,72.33
2022-12-05T21:24:01.500Z,55.90
2022-12-05T21:27:03.125Z,62.50
2022-12-05T21:30:05.344Z,58.67
2022-12-05T21:33:07.083Z,56.73
2022-12-05T21:36:09.112Z,69.43
2022-12-05T21:39:12.056Z,76.83
2022-12-05T21:42:13.700Z,67.90
2022-12-05T21:45:15.927Z,66.80
2022-12-05T21:48:17.751Z,66.77
2022-12-05T21:51:19.833Z,65.30
2022-12-05T21:54:21.399Z,100.47
2022-12-05T21:57:22.976Z,68.20
2022-12-05T22:00:24.572Z,72.17
2022-12-05T22:03:26.224Z,63.70
2022-12-05T22:06:28.226Z,58.17
2022-12-05T22:09:29.865Z,62.60
2022-12-05T22:12:33.101Z,64.57
2022-12-05T22:15:34.722Z,71.87
2022-12-05T22:18:36.760Z,76.93
2022-12-05T22:21:38.309Z,58.77
2022-12-05T22:24:40.164Z,69.30
2022-12-05T22:27:41.807Z,72.77
2022-12-05T22:30:46.441Z,68.13
2022-12-05T22:33:48.301Z,72.77
2022-12-05T22:36:51.821Z,100.40
2022-12-05T22:39:53.435Z,68.23
2022-12-05T22:42:55.012Z,92.37
2022-12-05T22:45:57.109Z,80.27
2022-12-05T22:48:58.849Z,85.40
2022-12-05T22:52:00.782Z,78.47
2022-12-05T22:55:02.460Z,94.97
2022-12-05T22:58:04.094Z,73.97
2022-12-05T23:01:15.204Z,82.67
2022-12-05T23:04:17.545Z,76.03
2022-12-05T23:07:19.203Z,77.33
2022-12-05T23:10:21.077Z,81.70
2022-12-05T23:13:22.626Z,83.90
2022-12-05T23:16:26.324Z,71.73
2022-12-05T23:19:27.995Z,91.73
2022-12-05T23:22:29.574Z,77.20
2022-12-05T23:25:31.244Z,59.97
2022-12-05T23:28:33.358Z,71.07
2022-12-05T23:31:35.029Z,60.40
2022-12-05T23:34:36.774Z,57.97
2022-12-05T23:37:38.378Z,45.63
2022-12-05T23:40:39.952Z,42.50
2022-12-05T23:43:42.093Z,40.20
2022-12-05T23:46:43.799Z,37.20
2022-12-05T23:49:45.431Z,34.00
2022-12-05T23:52:47.137Z,30.20
2022-12-05T23:55:48.723Z,37.00
2022-12-05T23:58:50.616Z,36.47
